sensor_id;sensor_type;location;lat;lon;timestamp;P1;durP1;ratioP1;P2;durP2;ratioP2
38465;SDS011;24244;51.950;5.902;2023-07-30T00:01:41;4.78;;;1.90;;
38465;SDS011;24244;51.950;5.902;2023-07-30T00:04:08;7.93;;;1.65;;
38465;SDS011;24244;51.950;5.902;2023-07-30T00:06:34;4.63;;;1.58;;
38465;SDS011;24244;51.950;5.902;2023-07-30T00:09:01;7.55;;;1.70;;
38465;SDS011;24244;51.950;5.902;2023-07-30T00:11:29;3.42;;;1.35;;
38465;SDS011;24244;51.950;5.902;2023-07-30T00:13:56;5.65;;;1.45;;
38465;SDS011;24244;51.950;5.902;2023-07-30T00:16:25;3.30;;;1.27;;
38465;SDS011;24244;51.950;5.902;2023-07-30T00:18:52;4.07;;;1.65;;
38465;SDS011;24244;51.950;5.902;2023-07-30T00:21:19;3.78;;;1.75;;
38465;SDS011;24244;51.950;5.902;2023-07-30T00:23:45;3.38;;;1.27;;
38465;SDS011;24244;51.950;5.902;2023-07-30T00:26:12;4.13;;;1.15;;
38465;SDS011;24244;51.950;5.902;2023-07-30T00:28:41;4.72;;;1.55;;
38465;SDS011;24244;51.950;5.902;2023-07-30T00:31:08;5.63;;;1.77;;
38465;SDS011;24244;51.950;5.902;2023-07-30T00:33:35;3.63;;;1.25;;
38465;SDS011;24244;51.950;5.902;2023-07-30T00:36:02;4.13;;;1.70;;
38465;SDS011;24244;51.950;5.902;2023-07-30T00:38:29;4.47;;;1.45;;
38465;SDS011;24244;51.950;5.902;2023-07-30T00:40:56;3.00;;;1.15;;
38465;SDS011;24244;51.950;5.902;2023-07-30T00:43:23;3.47;;;1.40;;
38465;SDS011;24244;51.950;5.902;2023-07-30T00:45:51;4.82;;;1.35;;
38465;SDS011;24244;51.950;5.902;2023-07-30T00:48:18;4.47;;;1.20;;
38465;SDS011;24244;51.950;5.902;2023-07-30T00:50:45;4.43;;;1.60;;
38465;SDS011;24244;51.950;5.902;2023-07-30T00:53:13;3.45;;;1.52;;
38465;SDS011;24244;51.950;5.902;2023-07-30T00:55:41;3.28;;;1.27;;
38465;SDS011;24244;51.950;5.902;2023-07-30T00:58:08;3.33;;;1.40;;
38465;SDS011;24244;51.950;5.902;2023-07-30T01:00:36;3.13;;;1.30;;
38465;SDS011;24244;51.950;5.902;2023-07-30T01:03:05;4.32;;;1.50;;
38465;SDS011;24244;51.950;5.902;2023-07-30T01:05:32;5.35;;;1.50;;
38465;SDS011;24244;51.950;5.902;2023-07-30T01:07:59;5.18;;;1.50;;
38465;SDS011;24244;51.950;5.902;2023-07-30T01:10:26;6.25;;;1.67;;
38465;SDS011;24244;51.950;5.902;2023-07-30T01:12:56;3.15;;;1.35;;
38465;SDS011;24244;51.950;5.902;2023-07-30T01:15:23;2.97;;;1.15;;
38465;SDS011;24244;51.950;5.902;2023-07-30T01:17:50;4.88;;;1.83;;
38465;SDS011;24244;51.950;5.902;2023-07-30T01:20:19;4.05;;;1.50;;
38465;SDS011;24244;51.950;5.902;2023-07-30T01:22:48;3.38;;;1.40;;
38465;SDS011;24244;51.950;5.902;2023-07-30T01:25:15;4.13;;;1.48;;
38465;SDS011;24244;51.950;5.902;2023-07-30T01:27:44;3.28;;;1.15;;
38465;SDS011;24244;51.950;5.902;2023-07-30T01:30:18;3.83;;;1.60;;
38465;SDS011;24244;51.950;5.902;2023-07-30T01:32:51;4.07;;;1.45;;
38465;SDS011;24244;51.950;5.902;2023-07-30T01:35:19;3.92;;;1.20;;
38465;SDS011;24244;51.950;5.902;2023-07-30T01:37:50;4.50;;;1.60;;
38465;SDS011;24244;51.950;5.902;2023-07-30T01:40:18;5.00;;;1.42;;
38465;SDS011;24244;51.950;5.902;2023-07-30T01:42:45;4.18;;;1.80;;
38465;SDS011;24244;51.950;5.902;2023-07-30T01:45:12;3.72;;;1.42;;
38465;SDS011;24244;51.950;5.902;2023-07-30T01:47:39;3.88;;;1.55;;
38465;SDS011;24244;51.950;5.902;2023-07-30T01:50:06;6.72;;;1.40;;
38465;SDS011;24244;51.950;5.902;2023-07-30T01:52:33;3.80;;;1.63;;
38465;SDS011;24244;51.950;5.902;2023-07-30T01:55:01;4.10;;;1.92;;
38465;SDS011;24244;51.950;5.902;2023-07-30T01:57:28;2.72;;;1.15;;
38465;SDS011;24244;51.950;5.902;2023-07-30T01:59:55;2.58;;;1.08;;
38465;SDS011;24244;51.950;5.902;2023-07-30T02:02:22;5.13;;;1.40;;
38465;SDS011;24244;51.950;5.902;2023-07-30T02:04:49;4.68;;;1.75;;
38465;SDS011;24244;51.950;5.902;2023-07-30T02:07:16;5.90;;;1.67;;
38465;SDS011;24244;51.950;5.902;2023-07-30T02:09:43;3.88;;;1.38;;
38465;SDS011;24244;51.950;5.902;2023-07-30T02:12:11;5.72;;;1.88;;
38465;SDS011;24244;51.950;5.902;2023-07-30T02:14:38;4.72;;;1.70;;
38465;SDS011;24244;51.950;5.902;2023-07-30T02:17:05;4.38;;;1.50;;
38465;SDS011;24244;51.950;5.902;2023-07-30T02:19:32;5.20;;;1.73;;
38465;SDS011;24244;51.950;5.902;2023-07-30T02:21:58;4.18;;;1.90;;
38465;SDS011;24244;51.950;5.902;2023-07-30T02:24:25;3.80;;;1.70;;
38465;SDS011;24244;51.950;5.902;2023-07-30T02:26:52;4.45;;;1.42;;
38465;SDS011;24244;51.950;5.902;2023-07-30T02:29:23;5.38;;;1.38;;
38465;SDS011;24244;51.950;5.902;2023-07-30T02:31:50;3.45;;;1.40;;
38465;SDS011;24244;51.950;5.902;2023-07-30T02:34:17;4.55;;;1.55;;
38465;SDS011;24244;51.950;5.902;2023-07-30T02:36:43;4.82;;;1.48;;
38465;SDS011;24244;51.950;5.902;2023-07-30T02:39:10;4.80;;;1.40;;
38465;SDS011;24244;51.950;5.902;2023-07-30T02:41:38;6.55;;;1.70;;
38465;SDS011;24244;51.950;5.902;2023-07-30T02:44:05;4.22;;;1.27;;
38465;SDS011;24244;51.950;5.902;2023-07-30T02:46:33;4.47;;;1.63;;
38465;SDS011;24244;51.950;5.902;2023-07-30T02:49:00;3.83;;;1.50;;
38465;SDS011;24244;51.950;5.902;2023-07-30T02:51:27;5.20;;;1.63;;
38465;SDS011;24244;51.950;5.902;2023-07-30T02:53:55;5.55;;;1.63;;
38465;SDS011;24244;51.950;5.902;2023-07-30T02:56:24;4.05;;;1.48;;
38465;SDS011;24244;51.950;5.902;2023-07-30T02:58:51;5.13;;;1.63;;
38465;SDS011;24244;51.950;5.902;2023-07-30T03:01:18;3.88;;;1.33;;
38465;SDS011;24244;51.950;5.902;2023-07-30T03:03:46;4.75;;;1.50;;
38465;SDS011;24244;51.950;5.902;2023-07-30T03:06:13;4.78;;;1.88;;
38465;SDS011;24244;51.950;5.902;2023-07-30T03:08:47;5.43;;;1.70;;
38465;SDS011;24244;51.950;5.902;2023-07-30T03:11:13;6.20;;;2.00;;
38465;SDS011;24244;51.950;5.902;2023-07-30T03:13:40;5.50;;;1.92;;
38465;SDS011;24244;51.950;5.902;2023-07-30T03:16:07;4.97;;;1.67;;
38465;SDS011;24244;51.950;5.902;2023-07-30T03:18:34;5.65;;;1.95;;
38465;SDS011;24244;51.950;5.902;2023-07-30T03:21:03;6.35;;;2.13;;
38465;SDS011;24244;51.950;5.902;2023-07-30T03:23:31;5.35;;;1.92;;
38465;SDS011;24244;51.950;5.902;2023-07-30T03:25:58;4.15;;;2.03;;
38465;SDS011;24244;51.950;5.902;2023-07-30T03:28:26;5.55;;;1.90;;
38465;SDS011;24244;51.950;5.902;2023-07-30T03:30:53;4.40;;;2.03;;
38465;SDS011;24244;51.950;5.902;2023-07-30T03:33:20;5.78;;;1.90;;
38465;SDS011;24244;51.950;5.902;2023-07-30T03:35:47;5.28;;;1.92;;
38465;SDS011;24244;51.950;5.902;2023-07-30T03:38:16;4.95;;;2.08;;
38465;SDS011;24244;51.950;5.902;2023-07-30T03:40:43;10.45;;;2.53;;
38465;SDS011;24244;51.950;5.902;2023-07-30T03:43:09;6.45;;;2.15;;
38465;SDS011;24244;51.950;5.902;2023-07-30T03:45:37;5.85;;;2.22;;
38465;SDS011;24244;51.950;5.902;2023-07-30T03:48:04;5.70;;;2.70;;
38465;SDS011;24244;51.950;5.902;2023-07-30T03:50:31;8.35;;;2.75;;
38465;SDS011;24244;51.950;5.902;2023-07-30T03:52:58;6.53;;;2.78;;
38465;SDS011;24244;51.950;5.902;2023-07-30T03:55:26;5.70;;;2.20;;
38465;SDS011;24244;51.950;5.902;2023-07-30T03:57:53;4.40;;;2.22;;
38465;SDS011;24244;51.950;5.902;2023-07-30T04:00:20;5.65;;;2.20;;
38465;SDS011;24244;51.950;5.902;2023-07-30T04:02:46;6.10;;;2.30;;
38465;SDS011;24244;51.950;5.902;2023-07-30T04:05:15;6.95;;;2.30;;
38465;SDS011;24244;51.950;5.902;2023-07-30T04:07:42;6.68;;;2.70;;
38465;SDS011;24244;51.950;5.902;2023-07-30T04:10:09;6.90;;;2.40;;
38465;SDS011;24244;51.950;5.902;2023-07-30T04:12:37;6.88;;;2.58;;
38465;SDS011;24244;51.950;5.902;2023-07-30T04:15:04;7.63;;;2.33;;
38465;SDS011;24244;51.950;5.902;2023-07-30T04:17:32;6.95;;;2.85;;
38465;SDS011;24244;51.950;5.902;2023-07-30T04:20:00;7.20;;;2.85;;
38465;SDS011;24244;51.950;5.902;2023-07-30T04:22:27;6.35;;;2.35;;
38465;SDS011;24244;51.950;5.902;2023-07-30T04:24:53;6.47;;;2.55;;
38465;SDS011;24244;51.950;5.902;2023-07-30T04:27:20;6.82;;;2.95;;
38465;SDS011;24244;51.950;5.902;2023-07-30T04:29:49;7.32;;;2.88;;
38465;SDS011;24244;51.950;5.902;2023-07-30T04:32:15;10.63;;;2.97;;
38465;SDS011;24244;51.950;5.902;2023-07-30T04:34:42;7.65;;;3.03;;
38465;SDS011;24244;51.950;5.902;2023-07-30T04:37:09;8.00;;;3.17;;
38465;SDS011;24244;51.950;5.902;2023-07-30T04:39:36;8.50;;;3.00;;
38465;SDS011;24244;51.950;5.902;2023-07-30T04:42:03;7.88;;;3.47;;
38465;SDS011;24244;51.950;5.902;2023-07-30T04:44:30;8.93;;;2.78;;
38465;SDS011;24244;51.950;5.902;2023-07-30T04:47:05;8.02;;;3.38;;
38465;SDS011;24244;51.950;5.902;2023-07-30T04:49:33;7.82;;;3.03;;
38465;SDS011;24244;51.950;5.902;2023-07-30T04:52:02;7.82;;;3.22;;
38465;SDS011;24244;51.950;5.902;2023-07-30T04:54:29;8.82;;;2.88;;
38465;SDS011;24244;51.950;5.902;2023-07-30T04:56:56;8.60;;;3.50;;
38465;SDS011;24244;51.950;5.902;2023-07-30T04:59:23;6.88;;;3.28;;
38465;SDS011;24244;51.950;5.902;2023-07-30T05:01:49;7.53;;;2.83;;
38465;SDS011;24244;51.950;5.902;2023-07-30T05:04:18;6.75;;;2.83;;
38465;SDS011;24244;51.950;5.902;2023-07-30T05:06:45;8.55;;;3.50;;
38465;SDS011;24244;51.950;5.902;2023-07-30T05:09:12;10.35;;;3.72;;
38465;SDS011;24244;51.950;5.902;2023-07-30T05:11:38;11.70;;;4.22;;
38465;SDS011;24244;51.950;5.902;2023-07-30T05:14:06;9.82;;;3.83;;
38465;SDS011;24244;51.950;5.902;2023-07-30T05:16:33;8.35;;;3.83;;
38465;SDS011;24244;51.950;5.902;2023-07-30T05:19:00;12.77;;;3.90;;
38465;SDS011;24244;51.950;5.902;2023-07-30T05:21:28;10.38;;;3.60;;
38465;SDS011;24244;51.950;5.902;2023-07-30T05:23:55;7.88;;;2.92;;
38465;SDS011;24244;51.950;5.902;2023-07-30T05:26:22;6.00;;;2.97;;
38465;SDS011;24244;51.950;5.902;2023-07-30T05:28:49;8.02;;;3.47;;
38465;SDS011;24244;51.950;5.902;2023-07-30T05:31:16;11.60;;;4.18;;
38465;SDS011;24244;51.950;5.902;2023-07-30T05:33:43;8.05;;;3.40;;
38465;SDS011;24244;51.950;5.902;2023-07-30T05:36:10;9.23;;;4.32;;
38465;SDS011;24244;51.950;5.902;2023-07-30T05:38:40;10.13;;;4.60;;
38465;SDS011;24244;51.950;5.902;2023-07-30T05:41:07;10.10;;;3.75;;
38465;SDS011;24244;51.950;5.902;2023-07-30T05:43:34;9.18;;;3.70;;
38465;SDS011;24244;51.950;5.902;2023-07-30T05:46:00;10.70;;;4.28;;
38465;SDS011;24244;51.950;5.902;2023-07-30T05:48:27;9.15;;;4.50;;
38465;SDS011;24244;51.950;5.902;2023-07-30T05:50:54;10.27;;;4.10;;
38465;SDS011;24244;51.950;5.902;2023-07-30T05:53:21;8.02;;;4.32;;
38465;SDS011;24244;51.950;5.902;2023-07-30T05:55:49;7.15;;;3.50;;
38465;SDS011;24244;51.950;5.902;2023-07-30T05:58:16;10.63;;;4.45;;
38465;SDS011;24244;51.950;5.902;2023-07-30T06:00:43;11.38;;;4.80;;
38465;SDS011;24244;51.950;5.902;2023-07-30T06:03:10;8.25;;;4.10;;
38465;SDS011;24244;51.950;5.902;2023-07-30T06:05:41;8.82;;;3.83;;
38465;SDS011;24244;51.950;5.902;2023-07-30T06:08:08;8.80;;;4.25;;
38465;SDS011;24244;51.950;5.902;2023-07-30T06:10:35;10.93;;;4.45;;
38465;SDS011;24244;51.950;5.902;2023-07-30T06:13:04;9.48;;;4.07;;
38465;SDS011;24244;51.950;5.902;2023-07-30T06:15:31;9.30;;;4.65;;
38465;SDS011;24244;51.950;5.902;2023-07-30T06:18:00;13.80;;;5.63;;
38465;SDS011;24244;51.950;5.902;2023-07-30T06:20:27;13.88;;;5.43;;
38465;SDS011;24244;51.950;5.902;2023-07-30T06:22:54;12.82;;;5.32;;
38465;SDS011;24244;51.950;5.902;2023-07-30T06:25:21;11.25;;;5.03;;
38465;SDS011;24244;51.950;5.902;2023-07-30T06:27:47;9.88;;;4.90;;
38465;SDS011;24244;51.950;5.902;2023-07-30T06:30:16;10.38;;;4.63;;
38465;SDS011;24244;51.950;5.902;2023-07-30T06:32:43;7.68;;;4.60;;
38465;SDS011;24244;51.950;5.902;2023-07-30T06:35:09;11.13;;;4.20;;
38465;SDS011;24244;51.950;5.902;2023-07-30T06:37:37;9.50;;;4.43;;
38465;SDS011;24244;51.950;5.902;2023-07-30T06:40:04;13.27;;;5.28;;
38465;SDS011;24244;51.950;5.902;2023-07-30T06:42:32;9.25;;;4.28;;
38465;SDS011;24244;51.950;5.902;2023-07-30T06:44:59;11.43;;;4.53;;
38465;SDS011;24244;51.950;5.902;2023-07-30T06:47:28;9.77;;;4.45;;
38465;SDS011;24244;51.950;5.902;2023-07-30T06:49:55;10.15;;;4.13;;
38465;SDS011;24244;51.950;5.902;2023-07-30T06:52:22;12.18;;;4.97;;
38465;SDS011;24244;51.950;5.902;2023-07-30T06:54:49;12.40;;;4.68;;
38465;SDS011;24244;51.950;5.902;2023-07-30T06:57:15;9.85;;;3.90;;
38465;SDS011;24244;51.950;5.902;2023-07-30T06:59:42;11.18;;;5.28;;
38465;SDS011;24244;51.950;5.902;2023-07-30T07:02:09;9.75;;;5.53;;
38465;SDS011;24244;51.950;5.902;2023-07-30T07:04:37;13.13;;;5.00;;
38465;SDS011;24244;51.950;5.902;2023-07-30T07:07:04;11.63;;;5.30;;
38465;SDS011;24244;51.950;5.902;2023-07-30T07:09:31;8.43;;;4.22;;
38465;SDS011;24244;51.950;5.902;2023-07-30T07:11:58;10.07;;;4.53;;
38465;SDS011;24244;51.950;5.902;2023-07-30T07:14:28;12.05;;;5.03;;
38465;SDS011;24244;51.950;5.902;2023-07-30T07:16:54;9.27;;;4.78;;
38465;SDS011;24244;51.950;5.902;2023-07-30T07:19:24;9.63;;;4.95;;
38465;SDS011;24244;51.950;5.902;2023-07-30T07:21:52;12.43;;;5.40;;
38465;SDS011;24244;51.950;5.902;2023-07-30T07:24:19;12.63;;;5.30;;
38465;SDS011;24244;51.950;5.902;2023-07-30T07:26:46;7.53;;;4.28;;
38465;SDS011;24244;51.950;5.902;2023-07-30T07:29:13;10.52;;;5.18;;
38465;SDS011;24244;51.950;5.902;2023-07-30T07:31:39;10.05;;;4.93;;
38465;SDS011;24244;51.950;5.902;2023-07-30T07:34:07;12.45;;;5.47;;
38465;SDS011;24244;51.950;5.902;2023-07-30T07:36:34;10.50;;;5.13;;
38465;SDS011;24244;51.950;5.902;2023-07-30T07:39:05;9.55;;;4.60;;
38465;SDS011;24244;51.950;5.902;2023-07-30T07:41:32;10.75;;;5.28;;
38465;SDS011;24244;51.950;5.902;2023-07-30T07:43:59;9.88;;;5.00;;
38465;SDS011;24244;51.950;5.902;2023-07-30T07:46:26;9.90;;;5.82;;
38465;SDS011;24244;51.950;5.902;2023-07-30T07:48:54;9.82;;;4.97;;
38465;SDS011;24244;51.950;5.902;2023-07-30T07:51:20;10.32;;;4.72;;
38465;SDS011;24244;51.950;5.902;2023-07-30T07:53:48;11.50;;;4.78;;
38465;SDS011;24244;51.950;5.902;2023-07-30T07:56:16;9.65;;;4.03;;
38465;SDS011;24244;51.950;5.902;2023-07-30T07:58:42;7.57;;;3.83;;
38465;SDS011;24244;51.950;5.902;2023-07-30T08:01:09;10.73;;;3.83;;
38465;SDS011;24244;51.950;5.902;2023-07-30T08:03:36;11.43;;;4.18;;
38465;SDS011;24244;51.950;5.902;2023-07-30T08:06:03;8.80;;;3.42;;
38465;SDS011;24244;51.950;5.902;2023-07-30T08:08:31;8.77;;;3.42;;
38465;SDS011;24244;51.950;5.902;2023-07-30T08:10:58;10.27;;;3.70;;
38465;SDS011;24244;51.950;5.902;2023-07-30T08:13:32;8.38;;;3.80;;
38465;SDS011;24244;51.950;5.902;2023-07-30T08:15:59;5.95;;;2.97;;
38465;SDS011;24244;51.950;5.902;2023-07-30T08:18:26;9.60;;;3.30;;
38465;SDS011;24244;51.950;5.902;2023-07-30T08:20:52;8.93;;;3.03;;
38465;SDS011;24244;51.950;5.902;2023-07-30T08:23:19;12.10;;;3.75;;
38465;SDS011;24244;51.950;5.902;2023-07-30T08:25:46;9.68;;;4.15;;
38465;SDS011;24244;51.950;5.902;2023-07-30T08:28:13;9.43;;;4.35;;
38465;SDS011;24244;51.950;5.902;2023-07-30T08:30:42;10.60;;;3.95;;
38465;SDS011;24244;51.950;5.902;2023-07-30T08:33:09;7.57;;;3.40;;
38465;SDS011;24244;51.950;5.902;2023-07-30T08:35:36;7.03;;;3.45;;
38465;SDS011;24244;51.950;5.902;2023-07-30T08:38:04;9.65;;;4.35;;
38465;SDS011;24244;51.950;5.902;2023-07-30T08:40:31;9.57;;;3.92;;
38465;SDS011;24244;51.950;5.902;2023-07-30T08:42:58;10.07;;;4.28;;
38465;SDS011;24244;51.950;5.902;2023-07-30T08:45:27;10.90;;;4.60;;
38465;SDS011;24244;51.950;5.902;2023-07-30T08:47:57;8.50;;;4.25;;
38465;SDS011;24244;51.950;5.902;2023-07-30T08:50:24;8.13;;;3.92;;
38465;SDS011;24244;51.950;5.902;2023-07-30T08:52:52;6.32;;;3.22;;
38465;SDS011;24244;51.950;5.902;2023-07-30T08:55:21;9.20;;;4.65;;
38465;SDS011;24244;51.950;5.902;2023-07-30T08:57:49;9.65;;;3.80;;
38465;SDS011;24244;51.950;5.902;2023-07-30T09:00:17;7.47;;;3.90;;
38465;SDS011;24244;51.950;5.902;2023-07-30T09:02:47;8.13;;;3.60;;
38465;SDS011;24244;51.950;5.902;2023-07-30T09:05:18;10.70;;;3.65;;
38465;SDS011;24244;51.950;5.902;2023-07-30T09:10:13;8.95;;;3.42;;
38465;SDS011;24244;51.950;5.902;2023-07-30T09:12:40;6.10;;;3.35;;
38465;SDS011;24244;51.950;5.902;2023-07-30T09:15:07;7.43;;;3.72;;
38465;SDS011;24244;51.950;5.902;2023-07-30T09:17:35;7.55;;;3.58;;
38465;SDS011;24244;51.950;5.902;2023-07-30T09:20:03;8.40;;;3.28;;
38465;SDS011;24244;51.950;5.902;2023-07-30T09:22:34;8.38;;;2.90;;
38465;SDS011;24244;51.950;5.902;2023-07-30T09:25:07;6.57;;;3.17;;
38465;SDS011;24244;51.950;5.902;2023-07-30T09:27:34;6.13;;;3.03;;
38465;SDS011;24244;51.950;5.902;2023-07-30T09:30:01;7.47;;;2.97;;
38465;SDS011;24244;51.950;5.902;2023-07-30T09:32:32;6.80;;;3.05;;
38465;SDS011;24244;51.950;5.902;2023-07-30T09:35:06;8.23;;;2.55;;
38465;SDS011;24244;51.950;5.902;2023-07-30T09:37:47;6.00;;;2.15;;
38465;SDS011;24244;51.950;5.902;2023-07-30T09:40:16;8.13;;;2.38;;
38465;SDS011;24244;51.950;5.902;2023-07-30T09:42:45;5.63;;;2.40;;
38465;SDS011;24244;51.950;5.902;2023-07-30T09:45:16;8.18;;;2.80;;
38465;SDS011;24244;51.950;5.902;2023-07-30T09:47:47;6.63;;;2.80;;
38465;SDS011;24244;51.950;5.902;2023-07-30T09:50:15;9.40;;;3.22;;
38465;SDS011;24244;51.950;5.902;2023-07-30T09:52:43;6.20;;;2.60;;
38465;SDS011;24244;51.950;5.902;2023-07-30T09:55:10;5.40;;;2.17;;
38465;SDS011;24244;51.950;5.902;2023-07-30T09:57:38;6.80;;;2.38;;
38465;SDS011;24244;51.950;5.902;2023-07-30T10:00:06;5.40;;;2.00;;
38465;SDS011;24244;51.950;5.902;2023-07-30T10:02:37;4.18;;;2.47;;
38465;SDS011;24244;51.950;5.902;2023-07-30T10:05:08;3.90;;;1.92;;
38465;SDS011;24244;51.950;5.902;2023-07-30T10:07:38;5.60;;;2.10;;
38465;SDS011;24244;51.950;5.902;2023-07-30T10:10:10;6.32;;;1.95;;
38465;SDS011;24244;51.950;5.902;2023-07-30T10:12:38;4.50;;;2.10;;
38465;SDS011;24244;51.950;5.902;2023-07-30T10:15:07;5.68;;;2.08;;
38465;SDS011;24244;51.950;5.902;2023-07-30T10:17:34;6.65;;;2.22;;
38465;SDS011;24244;51.950;5.902;2023-07-30T10:22:51;6.45;;;2.20;;
38465;SDS011;24244;51.950;5.902;2023-07-30T10:25:27;5.28;;;1.42;;
38465;SDS011;24244;51.950;5.902;2023-07-30T10:27:55;4.40;;;1.70;;
38465;SDS011;24244;51.950;5.902;2023-07-30T10:30:29;4.82;;;1.60;;
38465;SDS011;24244;51.950;5.902;2023-07-30T10:32:58;4.88;;;1.70;;
38465;SDS011;24244;51.950;5.902;2023-07-30T10:35:36;4.65;;;1.30;;
38465;SDS011;24244;51.950;5.902;2023-07-30T10:38:12;3.55;;;1.70;;
38465;SDS011;24244;51.950;5.902;2023-07-30T10:43:27;5.57;;;1.27;;
38465;SDS011;24244;51.950;5.902;2023-07-30T10:45:54;3.08;;;0.82;;
38465;SDS011;24244;51.950;5.902;2023-07-30T10:48:32;3.22;;;0.85;;
38465;SDS011;24244;51.950;5.902;2023-07-30T10:51:00;3.53;;;0.90;;
38465;SDS011;24244;51.950;5.902;2023-07-30T10:53:28;3.20;;;0.90;;
38465;SDS011;24244;51.950;5.902;2023-07-30T10:55:58;4.97;;;0.77;;
38465;SDS011;24244;51.950;5.902;2023-07-30T10:58:29;3.60;;;0.70;;
38465;SDS011;24244;51.950;5.902;2023-07-30T11:00:56;2.67;;;0.82;;
38465;SDS011;24244;51.950;5.902;2023-07-30T11:03:24;2.45;;;0.52;;
38465;SDS011;24244;51.950;5.902;2023-07-30T11:05:53;3.42;;;0.57;;
38465;SDS011;24244;51.950;5.902;2023-07-30T11:08:21;3.53;;;0.73;;
38465;SDS011;24244;51.950;5.902;2023-07-30T11:10:59;3.40;;;0.90;;
38465;SDS011;24244;51.950;5.902;2023-07-30T11:13:27;4.78;;;1.05;;
38465;SDS011;24244;51.950;5.902;2023-07-30T11:15:53;3.10;;;0.82;;
38465;SDS011;24244;51.950;5.902;2023-07-30T11:18:20;2.05;;;0.43;;
38465;SDS011;24244;51.950;5.902;2023-07-30T11:20:47;1.65;;;0.70;;
38465;SDS011;24244;51.950;5.902;2023-07-30T11:23:20;3.72;;;0.77;;
38465;SDS011;24244;51.950;5.902;2023-07-30T11:28:27;4.15;;;0.88;;
38465;SDS011;24244;51.950;5.902;2023-07-30T11:30:57;2.83;;;0.80;;
38465;SDS011;24244;51.950;5.902;2023-07-30T11:33:26;3.38;;;0.70;;
38465;SDS011;24244;51.950;5.902;2023-07-30T11:35:53;4.47;;;0.82;;
38465;SDS011;24244;51.950;5.902;2023-07-30T11:38:21;3.03;;;0.65;;
38465;SDS011;24244;51.950;5.902;2023-07-30T11:40:49;2.58;;;0.90;;
38465;SDS011;24244;51.950;5.902;2023-07-30T11:43:17;5.47;;;0.98;;
38465;SDS011;24244;51.950;5.902;2023-07-30T11:45:45;3.35;;;0.88;;
38465;SDS011;24244;51.950;5.902;2023-07-30T11:48:12;2.75;;;0.70;;
38465;SDS011;24244;51.950;5.902;2023-07-30T11:50:44;3.85;;;0.85;;
38465;SDS011;24244;51.950;5.902;2023-07-30T11:53:11;4.13;;;0.90;;
38465;SDS011;24244;51.950;5.902;2023-07-30T11:55:38;2.45;;;0.65;;
38465;SDS011;24244;51.950;5.902;2023-07-30T11:58:05;3.83;;;0.70;;
38465;SDS011;24244;51.950;5.902;2023-07-30T12:00:34;2.33;;;0.70;;
38465;SDS011;24244;51.950;5.902;2023-07-30T12:03:04;2.90;;;0.77;;
38465;SDS011;24244;51.950;5.902;2023-07-30T12:05:32;4.60;;;0.90;;
38465;SDS011;24244;51.950;5.902;2023-07-30T12:08:00;3.35;;;1.23;;
38465;SDS011;24244;51.950;5.902;2023-07-30T12:10:40;2.70;;;0.82;;
38465;SDS011;24244;51.950;5.902;2023-07-30T12:13:14;2.35;;;0.50;;
38465;SDS011;24244;51.950;5.902;2023-07-30T12:15:43;2.13;;;0.63;;
38465;SDS011;24244;51.950;5.902;2023-07-30T12:18:12;3.55;;;0.65;;
38465;SDS011;24244;51.950;5.902;2023-07-30T12:20:39;3.90;;;0.70;;
38465;SDS011;24244;51.950;5.902;2023-07-30T12:23:06;1.25;;;0.47;;
38465;SDS011;24244;51.950;5.902;2023-07-30T12:25:35;1.95;;;0.40;;
38465;SDS011;24244;51.950;5.902;2023-07-30T12:28:02;1.67;;;0.50;;
38465;SDS011;24244;51.950;5.902;2023-07-30T12:30:29;2.45;;;0.50;;
38465;SDS011;24244;51.950;5.902;2023-07-30T12:32:56;1.40;;;0.40;;
38465;SDS011;24244;51.950;5.902;2023-07-30T12:35:25;2.10;;;0.43;;
38465;SDS011;24244;51.950;5.902;2023-07-30T12:37:51;2.40;;;0.30;;
38465;SDS011;24244;51.950;5.902;2023-07-30T12:40:18;0.65;;;0.20;;
38465;SDS011;24244;51.950;5.902;2023-07-30T12:42:45;2.13;;;0.47;;
38465;SDS011;24244;51.950;5.902;2023-07-30T12:45:12;3.05;;;0.50;;
38465;SDS011;24244;51.950;5.902;2023-07-30T12:47:40;1.98;;;0.45;;
38465;SDS011;24244;51.950;5.902;2023-07-30T12:50:07;2.60;;;0.38;;
38465;SDS011;24244;51.950;5.902;2023-07-30T12:52:37;1.25;;;0.38;;
38465;SDS011;24244;51.950;5.902;2023-07-30T12:55:04;1.45;;;0.43;;
38465;SDS011;24244;51.950;5.902;2023-07-30T12:57:32;1.80;;;0.30;;
38465;SDS011;24244;51.950;5.902;2023-07-30T13:00:02;3.10;;;0.32;;
38465;SDS011;24244;51.950;5.902;2023-07-30T13:02:31;1.20;;;0.15;;
38465;SDS011;24244;51.950;5.902;2023-07-30T13:05:02;3.88;;;0.30;;
38465;SDS011;24244;51.950;5.902;2023-07-30T13:07:32;0.80;;;0.20;;
38465;SDS011;24244;51.950;5.902;2023-07-30T13:10:04;1.67;;;0.30;;
38465;SDS011;24244;51.950;5.902;2023-07-30T13:12:32;4.80;;;0.60;;
38465;SDS011;24244;51.950;5.902;2023-07-30T13:14:59;2.13;;;0.50;;
38465;SDS011;24244;51.950;5.902;2023-07-30T13:17:27;2.20;;;0.25;;
38465;SDS011;24244;51.950;5.902;2023-07-30T13:19:54;1.02;;;0.17;;
38465;SDS011;24244;51.950;5.902;2023-07-30T13:22:22;2.30;;;0.50;;
38465;SDS011;24244;51.950;5.902;2023-07-30T13:24:48;2.47;;;0.35;;
38465;SDS011;24244;51.950;5.902;2023-07-30T13:27:17;2.33;;;0.73;;
38465;SDS011;24244;51.950;5.902;2023-07-30T13:29:46;3.10;;;0.40;;
38465;SDS011;24244;51.950;5.902;2023-07-30T13:32:14;3.03;;;0.20;;
38465;SDS011;24244;51.950;5.902;2023-07-30T13:34:41;0.75;;;0.20;;
38465;SDS011;24244;51.950;5.902;2023-07-30T13:37:08;1.85;;;0.35;;
38465;SDS011;24244;51.950;5.902;2023-07-30T13:39:35;1.05;;;0.22;;
38465;SDS011;24244;51.950;5.902;2023-07-30T13:42:02;1.95;;;0.38;;
38465;SDS011;24244;51.950;5.902;2023-07-30T13:44:30;1.63;;;0.20;;
38465;SDS011;24244;51.950;5.902;2023-07-30T13:46:57;2.00;;;0.15;;
38465;SDS011;24244;51.950;5.902;2023-07-30T13:49:24;2.70;;;0.50;;
38465;SDS011;24244;51.950;5.902;2023-07-30T13:51:51;1.35;;;0.30;;
38465;SDS011;24244;51.950;5.902;2023-07-30T13:54:18;3.05;;;0.30;;
38465;SDS011;24244;51.950;5.902;2023-07-30T13:56:46;1.15;;;0.20;;
38465;SDS011;24244;51.950;5.902;2023-07-30T13:59:13;1.02;;;0.30;;
38465;SDS011;24244;51.950;5.902;2023-07-30T14:01:41;3.00;;;0.40;;
38465;SDS011;24244;51.950;5.902;2023-07-30T14:04:08;0.70;;;0.10;;
38465;SDS011;24244;51.950;5.902;2023-07-30T14:06:35;0.70;;;0.10;;
38465;SDS011;24244;51.950;5.902;2023-07-30T14:09:03;1.10;;;0.17;;
38465;SDS011;24244;51.950;5.902;2023-07-30T14:11:31;1.52;;;0.10;;
38465;SDS011;24244;51.950;5.902;2023-07-30T14:13:57;2.00;;;0.32;;
38465;SDS011;24244;51.950;5.902;2023-07-30T14:16:24;2.22;;;0.40;;
38465;SDS011;24244;51.950;5.902;2023-07-30T14:18:53;1.25;;;0.20;;
38465;SDS011;24244;51.950;5.902;2023-07-30T14:21:19;0.52;;;0.10;;
38465;SDS011;24244;51.950;5.902;2023-07-30T14:23:46;2.55;;;0.30;;
38465;SDS011;24244;51.950;5.902;2023-07-30T14:26:13;1.73;;;0.20;;
38465;SDS011;24244;51.950;5.902;2023-07-30T14:28:40;1.30;;;0.30;;
38465;SDS011;24244;51.950;5.902;2023-07-30T14:31:08;2.05;;;0.30;;
38465;SDS011;24244;51.950;5.902;2023-07-30T14:33:35;2.03;;;0.40;;
38465;SDS011;24244;51.950;5.902;2023-07-30T14:36:04;1.20;;;0.20;;
38465;SDS011;24244;51.950;5.902;2023-07-30T14:38:33;1.27;;;0.40;;
38465;SDS011;24244;51.950;5.902;2023-07-30T14:41:00;2.05;;;0.45;;
38465;SDS011;24244;51.950;5.902;2023-07-30T14:43:30;2.22;;;0.40;;
38465;SDS011;24244;51.950;5.902;2023-07-30T14:45:56;0.90;;;0.30;;
38465;SDS011;24244;51.950;5.902;2023-07-30T14:48:23;2.88;;;0.50;;
38465;SDS011;24244;51.950;5.902;2023-07-30T14:50:50;1.50;;;0.30;;
38465;SDS011;24244;51.950;5.902;2023-07-30T14:53:20;1.80;;;0.40;;
38465;SDS011;24244;51.950;5.902;2023-07-30T14:55:47;2.33;;;0.40;;
38465;SDS011;24244;51.950;5.902;2023-07-30T14:58:13;1.80;;;0.22;;
38465;SDS011;24244;51.950;5.902;2023-07-30T15:00:40;1.88;;;0.40;;